Location:
 IT 
 EN 
 FR 
 DE 
 ES 

Current weather

Datameteo.com Informazioni Meteo attuali
Milano / Linate, Italy
Alba: 7:42 AM UTC1
Tramonto: 4:40 PM UTC1
 Lat: 45.42N, Lon: 9.27E
ICAO Used: LIML
Realzeit wetter, Realtime weather, Metèo en temps reel, Dato en tiempo real, Akt, Upd,Mis a j, Act
Update: 0620 AM UTC+0 VEN DIC 03 2021
Sottili Banchi di Nebbia
Temp: 0°C
Feuchte/Humidity/Humiditè/Humedad': 100%
Wind-Wind-Vent-Viento: NW 02 KTS /
Pressione-Pressure-Pression-Presìon: 1009 hPa
Tautemperatur-Dew Point-P. de Rosèe-Temp rocìo: 0°C
Wärmindex-Feels like-Index de Chaleur-Indice Calor: 0°C
Sicht-Visibility-Visibilitè-Visibilidad: 8000 m. (good)
Wind Chill-Refroidissement eolien-Indice Calor Viento (Wind Chill): N/D
Ho"chs,High,Max 14 hr: 2°C
Mindes,Low,Min 24 hr: N/D


ORIGINAL METAR
LIML 030620Z 31002KT 8000 R36/0450D MIFG NSC 00/00 Q1009 NOSIG




Elaborazione dati by Datameteo.com - Lrc Servizi srl Copyright ©, All rights reserved.
View the web version
©2010 Datameteo.com
weather mobile,mobile weather,meteo mobile,mobile meteo,meteo sul telefonino datameteo.com